sensor_id;sensor_type;location;lat;lon;timestamp;P1;durP1;ratioP1;P2;durP2;ratioP2
21091;SDS011;10704;42.678;23.288;2022-12-29T00:01:17;54.00;;;30.67;;
21091;SDS011;10704;42.678;23.288;2022-12-29T00:03:47;51.00;;;31.08;;
21091;SDS011;10704;42.678;23.288;2022-12-29T00:06:13;53.25;;;31.48;;
21091;SDS011;10704;42.678;23.288;2022-12-29T00:08:39;51.03;;;29.92;;
21091;SDS011;10704;42.678;23.288;2022-12-29T00:11:12;55.00;;;31.58;;
21091;SDS011;10704;42.678;23.288;2022-12-29T00:13:46;57.05;;;31.45;;
21091;SDS011;10704;42.678;23.288;2022-12-29T00:16:32;64.05;;;33.13;;
21091;SDS011;10704;42.678;23.288;2022-12-29T00:18:59;52.55;;;31.98;;
21091;SDS011;10704;42.678;23.288;2022-12-29T00:21:25;53.30;;;30.92;;
21091;SDS011;10704;42.678;23.288;2022-12-29T00:24:18;59.85;;;32.72;;
21091;SDS011;10704;42.678;23.288;2022-12-29T00:29:50;53.83;;;32.10;;
21091;SDS011;10704;42.678;23.288;2022-12-29T00:32:39;58.17;;;32.22;;
21091;SDS011;10704;42.678;23.288;2022-12-29T00:35:31;53.65;;;29.98;;
21091;SDS011;10704;42.678;23.288;2022-12-29T00:38:04;53.67;;;31.25;;
21091;SDS011;10704;42.678;23.288;2022-12-29T00:40:51;60.78;;;34.42;;
21091;SDS011;10704;42.678;23.288;2022-12-29T00:43:35;54.45;;;32.75;;
21091;SDS011;10704;42.678;23.288;2022-12-29T00:46:20;56.42;;;33.05;;
21091;SDS011;10704;42.678;23.288;2022-12-29T00:48:46;55.67;;;33.30;;
21091;SDS011;10704;42.678;23.288;2022-12-29T00:51:30;56.67;;;33.30;;
21091;SDS011;10704;42.678;23.288;2022-12-29T00:53:56;58.75;;;34.63;;
21091;SDS011;10704;42.678;23.288;2022-12-29T00:56:22;59.10;;;34.65;;
21091;SDS011;10704;42.678;23.288;2022-12-29T00:58:48;57.53;;;34.67;;
21091;SDS011;10704;42.678;23.288;2022-12-29T01:01:14;62.47;;;35.53;;
21091;SDS011;10704;42.678;23.288;2022-12-29T01:03:40;60.58;;;33.63;;
21091;SDS011;10704;42.678;23.288;2022-12-29T01:06:07;64.47;;;38.00;;
21091;SDS011;10704;42.678;23.288;2022-12-29T01:08:36;62.97;;;36.92;;
21091;SDS011;10704;42.678;23.288;2022-12-29T01:11:04;63.42;;;36.38;;
21091;SDS011;10704;42.678;23.288;2022-12-29T01:13:32;63.88;;;38.03;;
21091;SDS011;10704;42.678;23.288;2022-12-29T01:15:58;62.17;;;36.92;;
21091;SDS011;10704;42.678;23.288;2022-12-29T01:18:24;69.55;;;37.63;;
21091;SDS011;10704;42.678;23.288;2022-12-29T01:20:57;65.70;;;36.28;;
21091;SDS011;10704;42.678;23.288;2022-12-29T01:23:31;64.70;;;36.50;;
21091;SDS011;10704;42.678;23.288;2022-12-29T01:26:07;65.00;;;36.08;;
21091;SDS011;10704;42.678;23.288;2022-12-29T01:28:37;65.28;;;36.13;;
21091;SDS011;10704;42.678;23.288;2022-12-29T01:31:07;60.58;;;35.13;;
21091;SDS011;10704;42.678;23.288;2022-12-29T01:33:35;61.05;;;34.88;;
21091;SDS011;10704;42.678;23.288;2022-12-29T01:36:05;59.83;;;34.40;;
21091;SDS011;10704;42.678;23.288;2022-12-29T01:38:33;57.75;;;33.13;;
21091;SDS011;10704;42.678;23.288;2022-12-29T01:41:00;59.58;;;33.55;;
21091;SDS011;10704;42.678;23.288;2022-12-29T01:46:22;42.28;;;25.63;;
21091;SDS011;10704;42.678;23.288;2022-12-29T01:51:34;39.95;;;24.63;;
21091;SDS011;10704;42.678;23.288;2022-12-29T01:54:04;41.90;;;25.77;;
21091;SDS011;10704;42.678;23.288;2022-12-29T01:56:34;40.78;;;25.05;;
21091;SDS011;10704;42.678;23.288;2022-12-29T01:59:02;39.03;;;23.55;;
21091;SDS011;10704;42.678;23.288;2022-12-29T02:01:34;39.10;;;24.05;;
21091;SDS011;10704;42.678;23.288;2022-12-29T02:04:00;40.78;;;23.77;;
21091;SDS011;10704;42.678;23.288;2022-12-29T02:07:09;44.28;;;23.67;;
21091;SDS011;10704;42.678;23.288;2022-12-29T02:09:20;40.88;;;25.73;;
21091;SDS011;10704;42.678;23.288;2022-12-29T02:11:49;39.05;;;24.08;;
21091;SDS011;10704;42.678;23.288;2022-12-29T02:14:17;38.45;;;23.63;;
21091;SDS011;10704;42.678;23.288;2022-12-29T02:41:21;34.30;;;19.30;;
21091;SDS011;10704;42.678;23.288;2022-12-29T02:43:59;31.92;;;18.63;;
21091;SDS011;10704;42.678;23.288;2022-12-29T02:46:48;32.55;;;18.77;;
21091;SDS011;10704;42.678;23.288;2022-12-29T02:49:31;31.38;;;19.95;;
21091;SDS011;10704;42.678;23.288;2022-12-29T02:52:04;34.63;;;20.40;;
21091;SDS011;10704;42.678;23.288;2022-12-29T02:54:37;35.25;;;21.33;;
21091;SDS011;10704;42.678;23.288;2022-12-29T02:59:41;34.88;;;21.98;;
21091;SDS011;10704;42.678;23.288;2022-12-29T03:02:53;37.30;;;22.83;;
21091;SDS011;10704;42.678;23.288;2022-12-29T03:13:28;51.10;;;28.77;;
21091;SDS011;10704;42.678;23.288;2022-12-29T03:16:24;46.97;;;28.02;;
21091;SDS011;10704;42.678;23.288;2022-12-29T03:21:53;51.38;;;28.05;;
21091;SDS011;10704;42.678;23.288;2022-12-29T03:24:46;42.78;;;25.85;;
21091;SDS011;10704;42.678;23.288;2022-12-29T03:27:19;49.92;;;26.83;;
21091;SDS011;10704;42.678;23.288;2022-12-29T03:29:50;44.25;;;27.08;;
21091;SDS011;10704;42.678;23.288;2022-12-29T03:32:23;44.75;;;26.02;;
21091;SDS011;10704;42.678;23.288;2022-12-29T03:34:55;50.67;;;28.17;;
21091;SDS011;10704;42.678;23.288;2022-12-29T03:37:22;45.90;;;28.98;;
21091;SDS011;10704;42.678;23.288;2022-12-29T03:39:53;47.60;;;28.10;;
21091;SDS011;10704;42.678;23.288;2022-12-29T03:42:21;46.25;;;29.33;;
21091;SDS011;10704;42.678;23.288;2022-12-29T03:44:53;48.40;;;28.50;;
21091;SDS011;10704;42.678;23.288;2022-12-29T03:47:22;54.60;;;31.67;;
21091;SDS011;10704;42.678;23.288;2022-12-29T03:49:49;51.53;;;31.85;;
21091;SDS011;10704;42.678;23.288;2022-12-29T03:52:16;52.55;;;29.65;;
21091;SDS011;10704;42.678;23.288;2022-12-29T03:54:44;51.63;;;30.63;;
21091;SDS011;10704;42.678;23.288;2022-12-29T03:57:10;50.40;;;30.10;;
21091;SDS011;10704;42.678;23.288;2022-12-29T03:59:53;49.67;;;28.80;;
21091;SDS011;10704;42.678;23.288;2022-12-29T04:02:19;48.13;;;28.02;;
21091;SDS011;10704;42.678;23.288;2022-12-29T04:04:45;47.58;;;28.67;;
21091;SDS011;10704;42.678;23.288;2022-12-29T04:07:11;50.72;;;28.75;;
21091;SDS011;10704;42.678;23.288;2022-12-29T04:09:38;53.90;;;31.35;;
21091;SDS011;10704;42.678;23.288;2022-12-29T04:12:06;51.28;;;29.88;;
21091;SDS011;10704;42.678;23.288;2022-12-29T04:14:34;51.80;;;31.95;;
21091;SDS011;10704;42.678;23.288;2022-12-29T04:17:00;57.28;;;32.25;;
21091;SDS011;10704;42.678;23.288;2022-12-29T04:19:27;56.55;;;33.35;;
21091;SDS011;10704;42.678;23.288;2022-12-29T04:21:54;56.45;;;32.78;;
21091;SDS011;10704;42.678;23.288;2022-12-29T04:24:20;43.38;;;26.77;;
21091;SDS011;10704;42.678;23.288;2022-12-29T04:26:48;39.30;;;23.08;;
21091;SDS011;10704;42.678;23.288;2022-12-29T04:29:32;35.30;;;20.60;;
21091;SDS011;10704;42.678;23.288;2022-12-29T04:32:33;31.63;;;20.17;;
21091;SDS011;10704;42.678;23.288;2022-12-29T04:34:59;32.13;;;19.48;;
21091;SDS011;10704;42.678;23.288;2022-12-29T04:37:26;34.72;;;18.77;;
21091;SDS011;10704;42.678;23.288;2022-12-29T04:39:52;33.38;;;19.10;;
21091;SDS011;10704;42.678;23.288;2022-12-29T04:42:18;33.67;;;20.05;;
21091;SDS011;10704;42.678;23.288;2022-12-29T04:44:45;36.55;;;20.45;;
21091;SDS011;10704;42.678;23.288;2022-12-29T04:47:31;37.88;;;20.13;;
21091;SDS011;10704;42.678;23.288;2022-12-29T04:50:19;35.90;;;19.85;;
21091;SDS011;10704;42.678;23.288;2022-12-29T04:52:52;35.00;;;19.90;;
21091;SDS011;10704;42.678;23.288;2022-12-29T04:55:19;33.05;;;19.95;;
21091;SDS011;10704;42.678;23.288;2022-12-29T04:57:45;33.70;;;19.55;;
21091;SDS011;10704;42.678;23.288;2022-12-29T05:00:16;34.42;;;19.83;;
21091;SDS011;10704;42.678;23.288;2022-12-29T05:02:42;34.40;;;20.27;;
21091;SDS011;10704;42.678;23.288;2022-12-29T05:05:09;35.70;;;20.55;;
21091;SDS011;10704;42.678;23.288;2022-12-29T05:07:39;32.72;;;18.90;;
21091;SDS011;10704;42.678;23.288;2022-12-29T05:10:06;36.17;;;21.80;;
21091;SDS011;10704;42.678;23.288;2022-12-29T05:12:33;36.58;;;19.55;;
21091;SDS011;10704;42.678;23.288;2022-12-29T05:15:00;34.92;;;20.50;;
21091;SDS011;10704;42.678;23.288;2022-12-29T05:17:28;35.90;;;21.25;;
21091;SDS011;10704;42.678;23.288;2022-12-29T05:19:54;37.45;;;22.75;;
21091;SDS011;10704;42.678;23.288;2022-12-29T05:22:21;40.30;;;23.10;;
21091;SDS011;10704;42.678;23.288;2022-12-29T05:24:47;39.30;;;23.70;;
21091;SDS011;10704;42.678;23.288;2022-12-29T05:27:14;41.35;;;24.60;;
21091;SDS011;10704;42.678;23.288;2022-12-29T05:29:47;46.70;;;28.55;;
21091;SDS011;10704;42.678;23.288;2022-12-29T05:32:13;47.70;;;27.90;;
21091;SDS011;10704;42.678;23.288;2022-12-29T05:34:40;53.92;;;31.38;;
21091;SDS011;10704;42.678;23.288;2022-12-29T05:37:06;58.45;;;34.25;;
21091;SDS011;10704;42.678;23.288;2022-12-29T05:39:32;54.33;;;33.67;;
21091;SDS011;10704;42.678;23.288;2022-12-29T05:42:01;59.33;;;35.28;;
21091;SDS011;10704;42.678;23.288;2022-12-29T05:44:37;53.78;;;32.60;;
21091;SDS011;10704;42.678;23.288;2022-12-29T05:47:23;59.92;;;33.50;;
21091;SDS011;10704;42.678;23.288;2022-12-29T05:50:09;57.25;;;35.80;;
21091;SDS011;10704;42.678;23.288;2022-12-29T05:53:01;52.30;;;33.08;;
21091;SDS011;10704;42.678;23.288;2022-12-29T05:55:28;55.33;;;32.53;;
21091;SDS011;10704;42.678;23.288;2022-12-29T05:57:54;56.95;;;33.92;;
21091;SDS011;10704;42.678;23.288;2022-12-29T06:00:21;58.00;;;33.58;;
21091;SDS011;10704;42.678;23.288;2022-12-29T06:02:47;53.88;;;32.50;;
21091;SDS011;10704;42.678;23.288;2022-12-29T06:05:15;61.83;;;33.90;;
21091;SDS011;10704;42.678;23.288;2022-12-29T06:07:41;57.20;;;34.42;;
21091;SDS011;10704;42.678;23.288;2022-12-29T06:10:07;58.33;;;34.85;;
21091;SDS011;10704;42.678;23.288;2022-12-29T06:12:43;56.15;;;32.40;;
21091;SDS011;10704;42.678;23.288;2022-12-29T06:15:10;59.38;;;33.83;;
21091;SDS011;10704;42.678;23.288;2022-12-29T06:17:38;63.75;;;36.60;;
21091;SDS011;10704;42.678;23.288;2022-12-29T06:20:05;55.20;;;32.78;;
21091;SDS011;10704;42.678;23.288;2022-12-29T06:22:32;57.47;;;32.75;;
21091;SDS011;10704;42.678;23.288;2022-12-29T06:24:58;55.55;;;31.48;;
21091;SDS011;10704;42.678;23.288;2022-12-29T06:27:24;59.05;;;34.33;;
21091;SDS011;10704;42.678;23.288;2022-12-29T06:29:51;54.10;;;31.67;;
21091;SDS011;10704;42.678;23.288;2022-12-29T06:32:17;60.50;;;34.90;;
21091;SDS011;10704;42.678;23.288;2022-12-29T06:34:47;58.88;;;33.58;;
21091;SDS011;10704;42.678;23.288;2022-12-29T06:37:13;57.15;;;33.70;;
21091;SDS011;10704;42.678;23.288;2022-12-29T06:39:39;56.72;;;33.80;;
21091;SDS011;10704;42.678;23.288;2022-12-29T06:42:09;58.28;;;34.60;;
21091;SDS011;10704;42.678;23.288;2022-12-29T06:44:43;50.28;;;31.65;;
21091;SDS011;10704;42.678;23.288;2022-12-29T06:47:10;51.67;;;31.20;;
21091;SDS011;10704;42.678;23.288;2022-12-29T06:49:36;53.05;;;30.77;;
21091;SDS011;10704;42.678;23.288;2022-12-29T06:52:02;51.90;;;31.45;;
21091;SDS011;10704;42.678;23.288;2022-12-29T06:54:29;53.28;;;31.65;;
21091;SDS011;10704;42.678;23.288;2022-12-29T06:56:56;49.17;;;30.25;;
21091;SDS011;10704;42.678;23.288;2022-12-29T06:59:22;52.50;;;31.13;;
21091;SDS011;10704;42.678;23.288;2022-12-29T07:01:48;54.03;;;31.55;;
21091;SDS011;10704;42.678;23.288;2022-12-29T07:04:14;54.85;;;33.65;;
21091;SDS011;10704;42.678;23.288;2022-12-29T07:06:39;61.72;;;33.00;;
21091;SDS011;10704;42.678;23.288;2022-12-29T07:09:06;53.67;;;33.35;;
21091;SDS011;10704;42.678;23.288;2022-12-29T07:11:33;57.38;;;33.25;;
21091;SDS011;10704;42.678;23.288;2022-12-29T07:13:59;56.88;;;35.35;;
21091;SDS011;10704;42.678;23.288;2022-12-29T07:16:25;56.10;;;32.58;;
21091;SDS011;10704;42.678;23.288;2022-12-29T07:18:51;53.47;;;32.10;;
21091;SDS011;10704;42.678;23.288;2022-12-29T07:21:17;54.13;;;31.63;;
21091;SDS011;10704;42.678;23.288;2022-12-29T07:23:44;46.90;;;30.60;;
21091;SDS011;10704;42.678;23.288;2022-12-29T07:26:11;44.08;;;27.75;;
21091;SDS011;10704;42.678;23.288;2022-12-29T07:28:39;45.47;;;26.23;;
21091;SDS011;10704;42.678;23.288;2022-12-29T07:31:05;44.53;;;25.55;;
21091;SDS011;10704;42.678;23.288;2022-12-29T07:33:34;41.13;;;24.52;;
21091;SDS011;10704;42.678;23.288;2022-12-29T07:36:00;37.80;;;21.67;;
21091;SDS011;10704;42.678;23.288;2022-12-29T07:38:26;39.55;;;24.27;;
21091;SDS011;10704;42.678;23.288;2022-12-29T07:40:55;35.83;;;22.80;;
21091;SDS011;10704;42.678;23.288;2022-12-29T07:43:22;40.90;;;24.08;;
21091;SDS011;10704;42.678;23.288;2022-12-29T07:46:13;33.95;;;22.58;;
21091;SDS011;10704;42.678;23.288;2022-12-29T07:48:39;36.90;;;23.10;;
21091;SDS011;10704;42.678;23.288;2022-12-29T07:51:05;35.85;;;23.00;;
21091;SDS011;10704;42.678;23.288;2022-12-29T07:53:31;39.78;;;23.70;;
21091;SDS011;10704;42.678;23.288;2022-12-29T07:55:57;34.03;;;22.83;;
21091;SDS011;10704;42.678;23.288;2022-12-29T07:58:23;38.08;;;23.23;;
21091;SDS011;10704;42.678;23.288;2022-12-29T08:00:55;38.17;;;23.20;;
21091;SDS011;10704;42.678;23.288;2022-12-29T08:03:22;37.42;;;22.13;;
21091;SDS011;10704;42.678;23.288;2022-12-29T08:05:48;38.13;;;23.42;;
21091;SDS011;10704;42.678;23.288;2022-12-29T08:08:14;37.75;;;23.63;;
21091;SDS011;10704;42.678;23.288;2022-12-29T08:10:40;40.90;;;26.77;;
21091;SDS011;10704;42.678;23.288;2022-12-29T08:13:06;45.20;;;27.10;;
21091;SDS011;10704;42.678;23.288;2022-12-29T08:15:33;45.28;;;28.23;;
21091;SDS011;10704;42.678;23.288;2022-12-29T08:17:59;42.15;;;26.38;;
21091;SDS011;10704;42.678;23.288;2022-12-29T08:20:24;44.15;;;27.35;;
21091;SDS011;10704;42.678;23.288;2022-12-29T08:22:51;42.13;;;27.25;;
21091;SDS011;10704;42.678;23.288;2022-12-29T08:25:17;42.83;;;28.27;;
21091;SDS011;10704;42.678;23.288;2022-12-29T08:27:44;42.35;;;28.52;;
21091;SDS011;10704;42.678;23.288;2022-12-29T08:30:10;41.60;;;26.25;;
21091;SDS011;10704;42.678;23.288;2022-12-29T08:32:37;36.58;;;27.02;;
21091;SDS011;10704;42.678;23.288;2022-12-29T08:35:03;38.58;;;27.60;;
21091;SDS011;10704;42.678;23.288;2022-12-29T08:37:29;39.38;;;26.50;;
21091;SDS011;10704;42.678;23.288;2022-12-29T08:39:55;35.45;;;25.85;;
21091;SDS011;10704;42.678;23.288;2022-12-29T08:42:21;37.80;;;27.42;;
21091;SDS011;10704;42.678;23.288;2022-12-29T08:44:47;37.78;;;25.02;;
21091;SDS011;10704;42.678;23.288;2022-12-29T08:47:13;43.25;;;27.13;;
21091;SDS011;10704;42.678;23.288;2022-12-29T08:49:38;40.75;;;27.70;;
21091;SDS011;10704;42.678;23.288;2022-12-29T08:52:05;41.60;;;27.52;;
21091;SDS011;10704;42.678;23.288;2022-12-29T08:54:31;37.75;;;27.17;;
21091;SDS011;10704;42.678;23.288;2022-12-29T08:56:57;48.22;;;30.80;;
21091;SDS011;10704;42.678;23.288;2022-12-29T08:59:31;45.88;;;29.60;;
21091;SDS011;10704;42.678;23.288;2022-12-29T09:01:57;48.15;;;31.50;;
21091;SDS011;10704;42.678;23.288;2022-12-29T09:04:23;50.58;;;33.55;;
21091;SDS011;10704;42.678;23.288;2022-12-29T09:06:50;47.72;;;32.17;;
21091;SDS011;10704;42.678;23.288;2022-12-29T09:09:32;48.85;;;32.42;;
21091;SDS011;10704;42.678;23.288;2022-12-29T09:11:59;45.65;;;28.52;;
21091;SDS011;10704;42.678;23.288;2022-12-29T09:14:24;42.33;;;29.77;;
21091;SDS011;10704;42.678;23.288;2022-12-29T09:16:51;44.45;;;29.35;;
21091;SDS011;10704;42.678;23.288;2022-12-29T09:19:36;42.33;;;28.55;;
21091;SDS011;10704;42.678;23.288;2022-12-29T09:22:02;41.58;;;28.77;;
21091;SDS011;10704;42.678;23.288;2022-12-29T09:24:28;45.08;;;28.65;;
21091;SDS011;10704;42.678;23.288;2022-12-29T09:26:54;42.05;;;27.77;;
21091;SDS011;10704;42.678;23.288;2022-12-29T09:29:20;42.90;;;27.17;;
21091;SDS011;10704;42.678;23.288;2022-12-29T09:31:47;40.65;;;23.90;;
21091;SDS011;10704;42.678;23.288;2022-12-29T09:34:13;34.53;;;24.50;;
21091;SDS011;10704;42.678;23.288;2022-12-29T09:36:38;37.20;;;26.65;;
21091;SDS011;10704;42.678;23.288;2022-12-29T09:39:04;37.28;;;23.00;;
21091;SDS011;10704;42.678;23.288;2022-12-29T09:41:38;36.00;;;23.90;;
21091;SDS011;10704;42.678;23.288;2022-12-29T09:46:57;35.05;;;22.20;;
21091;SDS011;10704;42.678;23.288;2022-12-29T09:49:39;30.42;;;21.88;;
21091;SDS011;10704;42.678;23.288;2022-12-29T09:52:15;35.88;;;23.20;;
21091;SDS011;10704;42.678;23.288;2022-12-29T09:55:03;36.92;;;24.48;;
21091;SDS011;10704;42.678;23.288;2022-12-29T09:57:54;39.28;;;24.45;;
21091;SDS011;10704;42.678;23.288;2022-12-29T10:00:26;35.90;;;24.20;;
21091;SDS011;10704;42.678;23.288;2022-12-29T10:03:19;37.40;;;24.58;;
21091;SDS011;10704;42.678;23.288;2022-12-29T10:05:47;36.97;;;24.73;;
21091;SDS011;10704;42.678;23.288;2022-12-29T10:08:29;31.77;;;22.90;;
21091;SDS011;10704;42.678;23.288;2022-12-29T10:11:12;37.30;;;24.15;;
21091;SDS011;10704;42.678;23.288;2022-12-29T10:14:16;36.85;;;23.63;;
21091;SDS011;10704;42.678;23.288;2022-12-29T10:17:08;36.70;;;24.50;;
21091;SDS011;10704;42.678;23.288;2022-12-29T10:25:22;33.05;;;22.92;;
21091;SDS011;10704;42.678;23.288;2022-12-29T10:27:51;31.75;;;22.23;;
21091;SDS011;10704;42.678;23.288;2022-12-29T10:30:21;35.75;;;22.60;;
21091;SDS011;10704;42.678;23.288;2022-12-29T10:32:51;33.85;;;22.73;;
21091;SDS011;10704;42.678;23.288;2022-12-29T10:35:25;34.03;;;22.98;;
21091;SDS011;10704;42.678;23.288;2022-12-29T10:46:09;32.05;;;22.63;;
21091;SDS011;10704;42.678;23.288;2022-12-29T10:48:38;36.63;;;22.70;;
21091;SDS011;10704;42.678;23.288;2022-12-29T10:51:05;35.55;;;23.45;;
21091;SDS011;10704;42.678;23.288;2022-12-29T10:53:46;34.97;;;22.75;;
21091;SDS011;10704;42.678;23.288;2022-12-29T10:56:46;33.95;;;22.10;;
21091;SDS011;10704;42.678;23.288;2022-12-29T10:59:30;37.03;;;24.55;;
21091;SDS011;10704;42.678;23.288;2022-12-29T11:04:41;38.72;;;24.35;;
21091;SDS011;10704;42.678;23.288;2022-12-29T11:07:38;33.85;;;23.80;;
21091;SDS011;10704;42.678;23.288;2022-12-29T11:10:56;41.97;;;23.92;;
21091;SDS011;10704;42.678;23.288;2022-12-29T11:12:58;36.70;;;24.58;;
21091;SDS011;10704;42.678;23.288;2022-12-29T11:15:26;36.38;;;23.45;;
21091;SDS011;10704;42.678;23.288;2022-12-29T11:17:53;36.75;;;23.23;;
21091;SDS011;10704;42.678;23.288;2022-12-29T11:22:59;31.90;;;22.27;;
21091;SDS011;10704;42.678;23.288;2022-12-29T11:25:26;34.90;;;23.33;;
21091;SDS011;10704;42.678;23.288;2022-12-29T11:27:56;34.85;;;22.63;;
21091;SDS011;10704;42.678;23.288;2022-12-29T11:30:28;33.80;;;22.85;;
21091;SDS011;10704;42.678;23.288;2022-12-29T11:32:55;37.50;;;21.75;;
21091;SDS011;10704;42.678;23.288;2022-12-29T11:35:29;32.92;;;22.20;;
21091;SDS011;10704;42.678;23.288;2022-12-29T11:37:58;32.85;;;21.90;;
21091;SDS011;10704;42.678;23.288;2022-12-29T11:40:25;35.53;;;22.35;;
21091;SDS011;10704;42.678;23.288;2022-12-29T11:42:52;32.75;;;22.55;;
21091;SDS011;10704;42.678;23.288;2022-12-29T11:45:22;31.90;;;21.77;;
21091;SDS011;10704;42.678;23.288;2022-12-29T11:47:58;32.63;;;21.33;;
21091;SDS011;10704;42.678;23.288;2022-12-29T11:50:31;30.95;;;20.33;;
21091;SDS011;10704;42.678;23.288;2022-12-29T11:53:20;32.15;;;21.17;;
21091;SDS011;10704;42.678;23.288;2022-12-29T11:55:55;35.20;;;23.95;;
21091;SDS011;10704;42.678;23.288;2022-12-29T11:58:34;34.58;;;22.67;;
21091;SDS011;10704;42.678;23.288;2022-12-29T12:01:02;37.58;;;22.67;;
21091;SDS011;10704;42.678;23.288;2022-12-29T12:06:30;35.38;;;23.40;;
21091;SDS011;10704;42.678;23.288;2022-12-29T12:09:21;34.63;;;24.25;;
21091;SDS011;10704;42.678;23.288;2022-12-29T12:11:58;37.30;;;24.95;;
21091;SDS011;10704;42.678;23.288;2022-12-29T12:14:41;37.85;;;24.23;;
21091;SDS011;10704;42.678;23.288;2022-12-29T12:17:41;37.50;;;22.85;;
21091;SDS011;10704;42.678;23.288;2022-12-29T12:23:12;34.38;;;21.10;;
21091;SDS011;10704;42.678;23.288;2022-12-29T12:26:32;30.70;;;21.75;;
21091;SDS011;10704;42.678;23.288;2022-12-29T12:28:52;37.95;;;21.25;;
21091;SDS011;10704;42.678;23.288;2022-12-29T12:34:03;34.22;;;19.40;;
21091;SDS011;10704;42.678;23.288;2022-12-29T12:39:27;35.15;;;21.27;;
21091;SDS011;10704;42.678;23.288;2022-12-29T12:56:12;35.13;;;19.70;;
21091;SDS011;10704;42.678;23.288;2022-12-29T13:19:19;30.65;;;19.05;;
21091;SDS011;10704;42.678;23.288;2022-12-29T13:27:43;27.63;;;18.75;;
21091;SDS011;10704;42.678;23.288;2022-12-29T13:36:22;30.67;;;19.70;;
21091;SDS011;10704;42.678;23.288;2022-12-29T13:38:51;30.27;;;19.75;;
21091;SDS011;10704;42.678;23.288;2022-12-29T13:41:52;29.40;;;19.00;;
21091;SDS011;10704;42.678;23.288;2022-12-29T13:44:21;33.38;;;20.60;;
21091;SDS011;10704;42.678;23.288;2022-12-29T13:46:50;32.88;;;19.88;;
21091;SDS011;10704;42.678;23.288;2022-12-29T13:49:20;32.75;;;20.55;;
21091;SDS011;10704;42.678;23.288;2022-12-29T13:51:53;28.55;;;19.90;;
21091;SDS011;10704;42.678;23.288;2022-12-29T13:54:27;33.15;;;20.88;;
21091;SDS011;10704;42.678;23.288;2022-12-29T14:00:16;30.90;;;19.45;;
21091;SDS011;10704;42.678;23.288;2022-12-29T14:07:58;33.15;;;20.08;;
21091;SDS011;10704;42.678;23.288;2022-12-29T14:10:33;30.17;;;20.13;;
21091;SDS011;10704;42.678;23.288;2022-12-29T14:13:22;33.40;;;20.50;;
21091;SDS011;10704;42.678;23.288;2022-12-29T14:15:50;34.80;;;20.40;;
21091;SDS011;10704;42.678;23.288;2022-12-29T14:18:24;33.90;;;20.02;;
21091;SDS011;10704;42.678;23.288;2022-12-29T14:28:54;35.00;;;21.63;;
21091;SDS011;10704;42.678;23.288;2022-12-29T14:36:37;32.15;;;21.00;;
21091;SDS011;10704;42.678;23.288;2022-12-29T14:44:48;33.08;;;20.48;;
21091;SDS011;10704;42.678;23.288;2022-12-29T14:47:22;38.25;;;21.60;;
21091;SDS011;10704;42.678;23.288;2022-12-29T14:49:50;36.78;;;21.35;;
21091;SDS011;10704;42.678;23.288;2022-12-29T14:52:18;40.05;;;22.17;;
21091;SDS011;10704;42.678;23.288;2022-12-29T14:54:49;35.25;;;21.60;;
21091;SDS011;10704;42.678;23.288;2022-12-29T14:57:21;35.95;;;22.40;;
21091;SDS011;10704;42.678;23.288;2022-12-29T14:59:48;40.67;;;23.85;;
21091;SDS011;10704;42.678;23.288;2022-12-29T15:02:20;42.83;;;24.77;;
21091;SDS011;10704;42.678;23.288;2022-12-29T15:04:49;49.30;;;28.85;;
21091;SDS011;10704;42.678;23.288;2022-12-29T15:07:18;50.80;;;31.20;;
21091;SDS011;10704;42.678;23.288;2022-12-29T15:09:46;44.85;;;27.50;;
21091;SDS011;10704;42.678;23.288;2022-12-29T15:12:20;61.70;;;34.65;;
21091;SDS011;10704;42.678;23.288;2022-12-29T15:15:19;62.28;;;36.72;;
21091;SDS011;10704;42.678;23.288;2022-12-29T15:17:47;61.00;;;33.95;;
21091;SDS011;10704;42.678;23.288;2022-12-29T15:20:34;55.42;;;32.63;;
21091;SDS011;10704;42.678;23.288;2022-12-29T15:23:09;52.38;;;31.25;;
21091;SDS011;10704;42.678;23.288;2022-12-29T15:25:58;54.33;;;31.58;;
21091;SDS011;10704;42.678;23.288;2022-12-29T15:28:43;68.93;;;37.35;;
21091;SDS011;10704;42.678;23.288;2022-12-29T15:31:21;67.07;;;33.03;;
21091;SDS011;10704;42.678;23.288;2022-12-29T15:33:52;58.90;;;32.13;;
21091;SDS011;10704;42.678;23.288;2022-12-29T15:38:48;67.00;;;37.22;;
21091;SDS011;10704;42.678;23.288;2022-12-29T15:43:53;69.25;;;38.58;;
21091;SDS011;10704;42.678;23.288;2022-12-29T15:46:42;70.22;;;37.20;;
21091;SDS011;10704;42.678;23.288;2022-12-29T15:49:08;67.18;;;39.50;;
21091;SDS011;10704;42.678;23.288;2022-12-29T15:51:39;68.78;;;43.15;;
21091;SDS011;10704;42.678;23.288;2022-12-29T15:54:06;62.53;;;39.65;;
21091;SDS011;10704;42.678;23.288;2022-12-29T15:56:40;68.68;;;41.55;;
21091;SDS011;10704;42.678;23.288;2022-12-29T16:01:50;77.70;;;45.45;;
21091;SDS011;10704;42.678;23.288;2022-12-29T16:04:16;71.72;;;41.78;;
21091;SDS011;10704;42.678;23.288;2022-12-29T16:06:44;71.03;;;41.55;;
21091;SDS011;10704;42.678;23.288;2022-12-29T16:09:28;71.75;;;41.38;;
21091;SDS011;10704;42.678;23.288;2022-12-29T16:12:07;65.80;;;39.65;;
21091;SDS011;10704;42.678;23.288;2022-12-29T16:14:44;79.50;;;43.95;;
21091;SDS011;10704;42.678;23.288;2022-12-29T16:17:18;77.28;;;43.33;;
21091;SDS011;10704;42.678;23.288;2022-12-29T16:19:52;75.35;;;44.17;;
21091;SDS011;10704;42.678;23.288;2022-12-29T16:25:01;81.78;;;43.63;;
21091;SDS011;10704;42.678;23.288;2022-12-29T16:27:32;76.22;;;41.15;;
21091;SDS011;10704;42.678;23.288;2022-12-29T16:30:06;79.82;;;42.70;;
21091;SDS011;10704;42.678;23.288;2022-12-29T16:32:53;68.00;;;39.38;;
21091;SDS011;10704;42.678;23.288;2022-12-29T16:35:24;72.55;;;39.28;;
21091;SDS011;10704;42.678;23.288;2022-12-29T16:43:41;72.70;;;43.88;;
21091;SDS011;10704;42.678;23.288;2022-12-29T16:46:18;71.55;;;40.63;;
21091;SDS011;10704;42.678;23.288;2022-12-29T16:48:53;73.93;;;37.83;;
21091;SDS011;10704;42.678;23.288;2022-12-29T16:51:23;75.50;;;38.97;;
21091;SDS011;10704;42.678;23.288;2022-12-29T16:53:53;70.43;;;37.97;;
21091;SDS011;10704;42.678;23.288;2022-12-29T16:56:21;82.32;;;44.53;;
21091;SDS011;10704;42.678;23.288;2022-12-29T16:59:18;81.40;;;47.22;;
21091;SDS011;10704;42.678;23.288;2022-12-29T17:01:49;79.30;;;45.35;;
21091;SDS011;10704;42.678;23.288;2022-12-29T17:04:15;74.80;;;45.15;;
21091;SDS011;10704;42.678;23.288;2022-12-29T17:06:41;84.22;;;45.00;;
21091;SDS011;10704;42.678;23.288;2022-12-29T17:09:20;79.63;;;46.30;;
21091;SDS011;10704;42.678;23.288;2022-12-29T17:11:48;81.88;;;45.00;;
21091;SDS011;10704;42.678;23.288;2022-12-29T17:16:58;89.22;;;48.97;;
21091;SDS011;10704;42.678;23.288;2022-12-29T17:19:32;81.82;;;45.60;;
21091;SDS011;10704;42.678;23.288;2022-12-29T17:22:00;88.68;;;47.20;;
21091;SDS011;10704;42.678;23.288;2022-12-29T17:24:27;98.15;;;51.97;;
21091;SDS011;10704;42.678;23.288;2022-12-29T17:26:54;90.85;;;50.47;;
21091;SDS011;10704;42.678;23.288;2022-12-29T17:32:05;94.45;;;49.92;;